createdAt,value
2018-09-15T00:00:14.626Z,10.60
2018-09-15T00:02:42.963Z,9.73
2018-09-15T00:05:11.386Z,9.00
2018-09-15T00:07:39.755Z,10.07
2018-09-15T00:10:08.171Z,9.10
2018-09-15T00:12:36.533Z,9.23
2018-09-15T00:15:05.679Z,9.23
2018-09-15T00:17:34.049Z,9.23
2018-09-15T00:20:02.427Z,9.00
2018-09-15T00:22:30.843Z,7.63
2018-09-15T00:24:59.236Z,7.57
2018-09-15T00:27:27.629Z,8.33
2018-09-15T00:29:56.006Z,8.20
2018-09-15T00:32:24.388Z,8.43
2018-09-15T00:34:53.267Z,9.27
2018-09-15T00:37:21.723Z,9.43
2018-09-15T00:39:50.147Z,8.93
2018-09-15T00:42:18.482Z,7.70
2018-09-15T00:44:47.691Z,8.27
2018-09-15T00:47:16.085Z,8.27
2018-09-15T00:49:44.515Z,7.80
2018-09-15T00:52:12.935Z,8.23
2018-09-15T00:54:41.324Z,7.90
2018-09-15T00:57:09.651Z,7.87
2018-09-15T00:59:38.050Z,9.00
2018-09-15T01:02:06.534Z,10.43
2018-09-15T01:04:34.897Z,9.00
2018-09-15T01:07:03.287Z,8.63
2018-09-15T01:09:31.651Z,8.50
2018-09-15T01:11:59.982Z,8.53
2018-09-15T01:14:28.487Z,8.53
2018-09-15T01:16:56.945Z,8.23
2018-09-15T01:19:25.383Z,7.90
2018-09-15T01:21:53.720Z,8.63
2018-09-15T01:24:22.140Z,7.40
2018-09-15T01:26:50.523Z,8.50
2018-09-15T01:29:18.821Z,8.73
2018-09-15T01:31:47.215Z,7.37
2018-09-15T01:34:15.567Z,7.70
2018-09-15T01:36:43.904Z,7.17
2018-09-15T01:39:12.381Z,6.93
2018-09-15T01:41:40.793Z,8.40
2018-09-15T01:44:09.242Z,7.73
2018-09-15T01:46:37.654Z,7.67
2018-09-15T01:49:06.035Z,7.57
2018-09-15T01:51:34.439Z,7.53
2018-09-15T01:54:02.838Z,8.47
2018-09-15T01:56:31.243Z,8.50
2018-09-15T01:58:59.562Z,7.73
2018-09-15T02:01:27.937Z,7.60
2018-09-15T02:03:56.271Z,8.07
2018-09-15T02:06:24.688Z,8.10
2018-09-15T02:08:53.001Z,7.67
2018-09-15T02:11:21.364Z,7.90
2018-09-15T02:13:49.793Z,8.23
2018-09-15T02:16:18.110Z,7.23
2018-09-15T02:18:46.491Z,8.33
2018-09-15T02:21:14.932Z,7.77
2018-09-15T02:23:43.346Z,7.80
2018-09-15T02:26:11.696Z,8.30
2018-09-15T02:28:39.997Z,8.60
2018-09-15T02:31:08.317Z,8.93
2018-09-15T02:33:36.564Z,7.70
2018-09-15T02:36:04.862Z,9.30
2018-09-15T02:38:33.184Z,7.70
2018-09-15T02:41:01.452Z,9.23
2018-09-15T02:43:29.854Z,8.20
2018-09-15T02:45:58.130Z,8.83
2018-09-15T02:48:26.546Z,8.33
2018-09-15T02:50:54.853Z,8.60
2018-09-15T02:53:23.187Z,9.10
2018-09-15T02:55:51.618Z,9.93
2018-09-15T02:58:20.044Z,8.60
2018-09-15T03:00:48.588Z,7.97
2018-09-15T03:03:16.971Z,7.63
2018-09-15T03:05:45.312Z,9.13
2018-09-15T03:08:13.660Z,9.30
2018-09-15T03:10:42.137Z,12.33
2018-09-15T03:13:10.434Z,9.43
2018-09-15T03:15:38.865Z,7.90
2018-09-15T03:18:07.295Z,9.13
2018-09-15T03:20:35.649Z,9.13
2018-09-15T03:23:04.016Z,8.43
2018-09-15T03:25:32.419Z,7.83
2018-09-15T03:28:00.844Z,8.33
2018-09-15T03:30:29.259Z,8.50
2018-09-15T03:32:57.698Z,8.63
2018-09-15T03:35:26.130Z,8.20
2018-09-15T03:37:54.477Z,8.77
2018-09-15T03:40:22.886Z,7.60
2018-09-15T03:42:51.275Z,8.90
2018-09-15T03:45:19.664Z,8.70
2018-09-15T03:47:48.003Z,9.93
2018-09-15T03:50:16.344Z,9.03
2018-09-15T03:52:44.691Z,9.13
2018-09-15T03:55:13.038Z,13.00
2018-09-15T03:57:41.434Z,9.83
2018-09-15T04:00:09.913Z,9.30
2018-09-15T04:02:38.288Z,9.27
2018-09-15T04:05:06.743Z,9.47
2018-09-15T04:07:35.039Z,9.60
2018-09-15T04:10:03.446Z,9.90
2018-09-15T04:12:31.800Z,9.90
2018-09-15T04:15:00.152Z,11.53
2018-09-15T04:17:28.567Z,10.50
2018-09-15T04:19:56.915Z,10.43
2018-09-15T04:22:25.291Z,10.17
2018-09-15T04:24:53.685Z,11.50
2018-09-15T04:27:22.063Z,11.43
2018-09-15T04:29:50.444Z,11.27
2018-09-15T04:32:18.914Z,10.87
2018-09-15T04:34:47.321Z,11.87
2018-09-15T04:37:15.707Z,11.13
2018-09-15T04:39:44.114Z,12.13
2018-09-15T04:42:12.509Z,13.87
2018-09-15T04:44:40.883Z,14.73
2018-09-15T04:47:09.246Z,16.80
2018-09-15T04:49:37.640Z,15.60
2018-09-15T04:52:06.091Z,16.83
2018-09-15T04:54:34.481Z,19.03
2018-09-15T04:57:02.938Z,18.33
2018-09-15T04:59:31.377Z,18.00
2018-09-15T05:01:59.839Z,19.77
2018-09-15T05:04:28.215Z,21.43
2018-09-15T05:06:56.601Z,24.00
2018-09-15T05:09:24.953Z,23.60
2018-09-15T05:11:53.259Z,25.07
2018-09-15T05:14:21.663Z,22.30
2018-09-15T05:16:50.078Z,24.70
2018-09-15T05:19:18.398Z,26.20
2018-09-15T05:21:46.817Z,27.57
2018-09-15T05:24:15.257Z,26.20
2018-09-15T05:26:43.596Z,26.90
2018-09-15T05:29:12.155Z,29.57
2018-09-15T05:31:40.573Z,28.30
2018-09-15T05:34:08.960Z,30.33
2018-09-15T05:36:37.381Z,34.10
2018-09-15T05:39:09.108Z,30.57
2018-09-15T05:41:37.607Z,33.70
2018-09-15T05:44:06.001Z,35.80
2018-09-15T05:46:34.332Z,38.40
2018-09-15T05:49:02.672Z,34.87
2018-09-15T05:51:31.117Z,32.30
2018-09-15T05:54:00.091Z,36.87
2018-09-15T05:56:28.601Z,41.20
2018-09-15T05:58:57.006Z,36.53
2018-09-15T06:01:25.875Z,36.50
2018-09-15T06:03:54.411Z,35.43
2018-09-15T06:06:22.865Z,33.53
2018-09-15T06:08:51.395Z,36.30
2018-09-15T06:11:19.821Z,37.17
2018-09-15T06:13:48.277Z,34.30
2018-09-15T06:16:16.674Z,34.10
2018-09-15T06:18:45.124Z,33.53
2018-09-15T06:21:13.497Z,32.37
2018-09-15T06:23:41.912Z,33.17
2018-09-15T06:26:12.372Z,33.53
2018-09-15T06:28:40.865Z,33.17
2018-09-15T06:31:09.410Z,32.13
2018-09-15T06:33:38.504Z,33.50
2018-09-15T06:36:06.918Z,28.70
2018-09-15T06:38:35.434Z,35.27
2018-09-15T06:41:04.751Z,30.77
2018-09-15T06:43:33.149Z,32.57
2018-09-15T06:46:01.828Z,31.20
2018-09-15T06:48:30.401Z,37.20
2018-09-15T06:50:58.976Z,34.63
2018-09-15T06:53:27.371Z,31.53
2018-09-15T06:55:55.787Z,37.40
2018-09-15T06:58:24.208Z,33.43
2018-09-15T07:00:52.624Z,36.00
2018-09-15T07:03:21.085Z,33.03
2018-09-15T07:05:49.745Z,35.30
2018-09-15T07:08:18.235Z,29.93
2018-09-15T07:10:46.592Z,36.20
2018-09-15T07:13:14.995Z,31.27
2018-09-15T07:15:43.636Z,31.23
2018-09-15T07:18:12.041Z,28.77
2018-09-15T07:20:40.577Z,29.63
2018-09-15T07:23:08.958Z,31.23
2018-09-15T07:25:37.405Z,27.90
2018-09-15T07:28:06.500Z,28.67
2018-09-15T07:30:34.934Z,26.93
2018-09-15T07:33:03.447Z,26.87
2018-09-15T07:35:31.836Z,28.00
2018-09-15T07:38:00.591Z,24.00
2018-09-15T07:40:29.161Z,26.73
2018-09-15T07:42:57.611Z,26.00
2018-09-15T07:45:25.999Z,25.00
2018-09-15T07:47:54.326Z,26.20
2018-09-15T07:50:22.756Z,23.00
2018-09-15T07:52:51.092Z,25.53
2018-09-15T07:55:19.549Z,23.70
2018-09-15T07:57:48.246Z,23.13
2018-09-15T08:00:16.599Z,22.80
2018-09-15T08:02:45.047Z,22.90
2018-09-15T08:05:13.451Z,23.83
2018-09-15T08:07:41.829Z,23.47
2018-09-15T08:10:10.252Z,11.13
2018-09-15T08:12:38.657Z,18.90
2018-09-15T08:15:07.024Z,11.87
2018-09-15T08:17:35.385Z,10.63
2018-09-15T08:20:03.774Z,14.10
2018-09-15T08:22:32.276Z,14.27
2018-09-15T08:25:00.631Z,15.00
2018-09-15T08:27:28.984Z,16.10
2018-09-15T08:29:57.277Z,16.33
2018-09-15T08:32:25.657Z,21.77
2018-09-15T08:34:54.083Z,18.53
2018-09-15T08:37:22.431Z,19.13
2018-09-15T08:39:50.778Z,17.87
2018-09-15T08:42:19.201Z,17.27
2018-09-15T08:44:47.961Z,22.30
2018-09-15T08:47:16.409Z,22.87
2018-09-15T08:49:44.752Z,22.80
2018-09-15T08:52:13.196Z,23.87
2018-09-15T08:54:41.803Z,23.87
2018-09-15T08:57:10.152Z,22.50
2018-09-15T08:59:38.554Z,22.23
2018-09-15T09:02:11.199Z,24.70
2018-09-15T09:04:39.604Z,21.97
2018-09-15T09:07:07.991Z,20.33
2018-09-15T09:09:36.438Z,22.67
2018-09-15T09:12:04.889Z,23.00
2018-09-15T09:14:33.359Z,21.27
2018-09-15T09:17:01.800Z,20.30
2018-09-15T09:19:30.204Z,21.57
2018-09-15T09:21:58.707Z,20.17
2018-09-15T09:24:27.226Z,20.53
2018-09-15T09:26:55.642Z,20.93
2018-09-15T09:29:24.076Z,20.57
2018-09-15T09:31:52.782Z,19.50
2018-09-15T09:34:21.431Z,20.20
2018-09-15T09:36:49.827Z,19.13
2018-09-15T09:39:18.300Z,17.60
2018-09-15T09:41:46.688Z,18.70
2018-09-15T09:44:15.069Z,19.10
2018-09-15T09:46:43.763Z,17.40
2018-09-15T09:49:12.247Z,18.40
2018-09-15T09:51:40.653Z,18.27
2018-09-15T09:54:08.968Z,18.70
2018-09-15T09:56:37.353Z,17.60
2018-09-15T09:59:06.507Z,19.10
2018-09-15T10:01:40.348Z,19.00
2018-09-15T10:04:08.719Z,16.40
2018-09-15T10:06:37.131Z,16.07
2018-09-15T10:09:08.225Z,14.73
2018-09-15T10:11:36.900Z,15.27
2018-09-15T10:14:05.226Z,16.67
2018-09-15T10:16:33.695Z,16.50
2018-09-15T10:19:02.040Z,17.00
2018-09-15T10:21:30.522Z,18.07
2018-09-15T10:23:58.916Z,16.97
2018-09-15T10:26:27.348Z,15.97
2018-09-15T10:28:55.753Z,18.87
2018-09-15T10:31:24.143Z,17.43
2018-09-15T10:33:52.503Z,18.90
2018-09-15T10:36:20.848Z,17.73
2018-09-15T10:38:49.222Z,18.60
2018-09-15T10:41:17.689Z,16.37
2018-09-15T10:43:46.099Z,16.43
2018-09-15T10:46:14.465Z,15.40
2018-09-15T10:48:42.830Z,16.00
2018-09-15T10:51:11.231Z,15.27
2018-09-15T10:53:39.562Z,14.13
2018-09-15T10:56:07.982Z,18.47
2018-09-15T10:58:36.368Z,15.27
2018-09-15T11:01:04.770Z,14.20
2018-09-15T11:03:33.485Z,14.43
2018-09-15T11:06:01.932Z,15.30
2018-09-15T11:08:31.391Z,13.53
2018-09-15T11:10:59.820Z,11.50
2018-09-15T11:13:31.152Z,12.50
2018-09-15T11:15:59.606Z,15.53
2018-09-15T11:18:28.028Z,12.00
2018-09-15T11:20:56.388Z,12.33
2018-09-15T11:23:24.681Z,11.83
2018-09-15T11:25:53.199Z,11.70
2018-09-15T11:28:21.613Z,11.80
2018-09-15T11:30:50.004Z,10.50
2018-09-15T11:33:18.358Z,9.47
2018-09-15T11:35:46.767Z,10.67
2018-09-15T11:38:15.155Z,9.63
2018-09-15T11:40:43.465Z,9.23
2018-09-15T11:43:12.165Z,8.93
2018-09-15T11:45:40.578Z,8.33
2018-09-15T11:48:08.983Z,8.13
2018-09-15T11:50:37.379Z,8.13
2018-09-15T11:53:05.791Z,8.87
2018-09-15T11:55:34.231Z,9.20
2018-09-15T11:58:02.625Z,8.93
2018-09-15T12:00:33.217Z,9.73
2018-09-15T12:03:01.553Z,10.00
2018-09-15T12:05:29.927Z,9.07
2018-09-15T12:07:58.326Z,8.60
2018-09-15T12:10:26.707Z,9.20
2018-09-15T12:12:55.059Z,10.10
2018-09-15T12:15:23.517Z,10.77
2018-09-15T12:17:51.812Z,10.00
2018-09-15T12:20:20.185Z,9.43
2018-09-15T12:22:48.528Z,7.77
2018-09-15T12:25:16.955Z,9.20
2018-09-15T12:27:45.469Z,8.33
2018-09-15T12:30:13.820Z,8.30
2018-09-15T12:32:42.266Z,10.10
2018-09-15T12:35:10.695Z,8.97
2018-09-15T12:37:39.023Z,9.00
2018-09-15T12:40:07.650Z,8.70
2018-09-15T12:42:36.027Z,9.37
2018-09-15T12:45:04.513Z,10.70
2018-09-15T12:47:32.816Z,9.70
2018-09-15T12:50:01.199Z,10.20
2018-09-15T12:52:29.632Z,9.00
2018-09-15T12:54:57.986Z,8.90
2018-09-15T12:57:26.358Z,10.43
2018-09-15T12:59:54.703Z,9.53
2018-09-15T13:02:23.085Z,9.63
2018-09-15T13:04:51.419Z,8.50
2018-09-15T13:07:19.767Z,8.53
2018-09-15T13:09:48.143Z,8.30
2018-09-15T13:12:16.581Z,8.83
2018-09-15T13:14:44.999Z,8.70
2018-09-15T13:17:13.428Z,9.57
2018-09-15T13:19:41.852Z,9.27
2018-09-15T13:22:10.242Z,8.83
2018-09-15T13:24:38.603Z,9.00
2018-09-15T13:27:06.989Z,9.30
2018-09-15T13:29:35.327Z,8.10
2018-09-15T13:32:03.795Z,8.30
2018-09-15T13:34:32.097Z,7.93
2018-09-15T13:37:00.394Z,8.37
2018-09-15T13:39:28.836Z,8.00
2018-09-15T13:41:57.195Z,8.33
2018-09-15T13:44:25.588Z,8.20
2018-09-15T13:46:53.952Z,7.47
2018-09-15T13:49:22.471Z,7.20
2018-09-15T13:51:51.044Z,8.10
2018-09-15T13:54:19.437Z,6.60
2018-09-15T13:56:47.816Z,8.00
2018-09-15T13:59:16.132Z,7.60
2018-09-15T14:01:44.467Z,8.03
2018-09-15T14:04:12.897Z,8.90
2018-09-15T14:06:41.237Z,8.40
2018-09-15T14:09:11.053Z,7.83
2018-09-15T14:11:39.501Z,12.50
2018-09-15T14:14:07.873Z,13.07
2018-09-15T14:16:36.609Z,9.60
2018-09-15T14:19:04.955Z,7.97
2018-09-15T14:21:33.461Z,8.67
2018-09-15T14:24:01.871Z,8.60
2018-09-15T14:26:30.327Z,9.67
2018-09-15T14:28:58.793Z,9.97
2018-09-15T14:31:27.195Z,8.27
2018-09-15T14:33:55.568Z,8.47
2018-09-15T14:36:23.946Z,9.40
2018-09-15T14:38:52.504Z,8.73
2018-09-15T14:41:20.889Z,8.57
2018-09-15T14:43:49.212Z,7.53
2018-09-15T14:46:17.538Z,7.90
2018-09-15T14:48:45.975Z,9.63
2018-09-15T14:51:14.391Z,8.33
2018-09-15T14:53:42.820Z,9.77
2018-09-15T14:56:11.239Z,8.17
2018-09-15T14:58:39.625Z,7.50
2018-09-15T15:01:07.975Z,8.07
2018-09-15T15:03:36.769Z,7.63
2018-09-15T15:06:05.148Z,7.73
2018-09-15T15:08:33.511Z,8.10
2018-09-15T15:11:01.911Z,9.50
2018-09-15T15:13:30.247Z,8.83
2018-09-15T15:15:58.569Z,8.00
2018-09-15T15:18:26.942Z,7.47
2018-09-15T15:20:55.327Z,7.67
2018-09-15T15:23:23.693Z,7.20
2018-09-15T15:25:52.102Z,7.80
2018-09-15T15:28:21.668Z,7.93
2018-09-15T15:30:50.053Z,8.40
2018-09-15T15:33:18.407Z,7.33
2018-09-15T15:35:46.857Z,8.17
2018-09-15T15:38:15.227Z,7.80
2018-09-15T15:40:43.727Z,7.40
2018-09-15T15:43:16.075Z,7.57
2018-09-15T15:45:45.009Z,8.30
2018-09-15T15:48:13.395Z,8.60
2018-09-15T15:50:41.777Z,8.23
2018-09-15T15:53:10.286Z,8.33
2018-09-15T15:55:38.662Z,8.37
2018-09-15T15:58:07.115Z,8.17
2018-09-15T16:00:35.478Z,8.17
2018-09-15T16:03:03.931Z,9.10
2018-09-15T16:05:32.241Z,8.40
2018-09-15T16:08:00.643Z,7.70
2018-09-15T16:10:28.976Z,7.43
2018-09-15T16:12:57.363Z,7.60
2018-09-15T16:15:25.749Z,8.13
2018-09-15T16:17:54.124Z,8.37
2018-09-15T16:20:22.476Z,7.43
2018-09-15T16:22:50.811Z,7.03
2018-09-15T16:25:19.291Z,6.60
2018-09-15T16:27:47.634Z,7.07
2018-09-15T16:30:16.056Z,8.27
2018-09-15T16:32:44.563Z,7.60
2018-09-15T16:35:13.087Z,8.17
2018-09-15T16:37:41.526Z,7.53
2018-09-15T16:40:09.932Z,8.17
2018-09-15T16:42:38.576Z,6.80
2018-09-15T16:45:07.221Z,6.90
2018-09-15T16:47:35.641Z,7.27
2018-09-15T16:50:04.061Z,6.70
2018-09-15T16:52:32.474Z,7.33
2018-09-15T16:55:00.850Z,7.47
2018-09-15T16:57:29.260Z,7.30
2018-09-15T16:59:57.660Z,7.00
2018-09-15T17:02:26.109Z,6.73
2018-09-15T17:04:54.663Z,6.73
2018-09-15T17:07:23.033Z,6.83
2018-09-15T17:09:51.391Z,8.67
2018-09-15T17:12:19.793Z,7.50
2018-09-15T17:14:48.129Z,7.50
2018-09-15T17:17:16.492Z,7.20
2018-09-15T17:19:44.879Z,7.93
2018-09-15T17:22:13.227Z,7.80
2018-09-15T17:24:41.677Z,7.30
2018-09-15T17:27:10.021Z,7.90
2018-09-15T17:29:38.444Z,9.13
2018-09-15T17:32:06.859Z,11.10
2018-09-15T17:34:35.406Z,8.43
2018-09-15T17:37:03.790Z,8.50
2018-09-15T17:39:32.157Z,8.57
2018-09-15T17:42:00.589Z,7.50
2018-09-15T17:44:28.981Z,8.77
2018-09-15T17:46:57.307Z,8.23
2018-09-15T17:49:25.660Z,8.70
2018-09-15T17:51:54.022Z,7.80
2018-09-15T17:54:22.439Z,7.63
2018-09-15T17:56:50.903Z,7.60
2018-09-15T17:59:19.233Z,7.80
2018-09-15T18:01:47.688Z,7.60
2018-09-15T18:04:16.127Z,7.53
2018-09-15T18:06:44.473Z,7.50
2018-09-15T18:09:12.812Z,7.03
2018-09-15T18:11:41.193Z,8.60
2018-09-15T18:14:09.535Z,8.20
2018-09-15T18:16:37.911Z,7.50
2018-09-15T18:19:06.312Z,7.63
2018-09-15T18:21:34.641Z,7.80
2018-09-15T18:24:03.009Z,7.00
2018-09-15T18:26:31.425Z,7.47
2018-09-15T18:28:59.971Z,9.90
2018-09-15T18:31:28.329Z,7.53
2018-09-15T18:33:56.818Z,9.80
2018-09-15T18:36:25.232Z,6.63
2018-09-15T18:38:55.307Z,8.00
2018-09-15T18:41:23.850Z,7.37
2018-09-15T18:43:52.173Z,8.20
2018-09-15T18:46:20.502Z,8.03
2018-09-15T18:48:48.965Z,6.90
2018-09-15T18:51:17.432Z,7.67
2018-09-15T18:53:45.923Z,6.97
2018-09-15T18:56:14.274Z,7.43
2018-09-15T18:58:42.663Z,6.90
2018-09-15T19:01:11.037Z,7.10
2018-09-15T19:03:39.401Z,6.10
2018-09-15T19:06:07.819Z,7.97
2018-09-15T19:08:36.088Z,7.77
2018-09-15T19:11:04.433Z,8.07
2018-09-15T19:13:33.426Z,8.90
2018-09-15T19:16:01.804Z,8.47
2018-09-15T19:18:30.121Z,8.87
2018-09-15T19:20:58.482Z,7.93
2018-09-15T19:23:27.255Z,8.67
2018-09-15T19:25:55.610Z,8.27
2018-09-15T19:28:23.958Z,8.30
2018-09-15T19:30:52.724Z,8.90
2018-09-15T19:33:21.163Z,8.47
2018-09-15T19:35:49.599Z,8.80
2018-09-15T19:38:17.977Z,9.77
2018-09-15T19:40:46.404Z,14.77
2018-09-15T19:43:14.786Z,10.67
2018-09-15T19:45:43.132Z,9.30
2018-09-15T19:48:11.511Z,10.60
2018-09-15T19:50:39.976Z,10.70
2018-09-15T19:53:08.359Z,11.40
2018-09-15T19:55:36.696Z,11.30
2018-09-15T19:58:05.395Z,11.77
2018-09-15T20:00:33.777Z,11.27
2018-09-15T20:03:02.242Z,12.57
2018-09-15T20:05:30.646Z,11.50
2018-09-15T20:08:00.113Z,12.23
2018-09-15T20:10:28.933Z,12.77
2018-09-15T20:12:57.470Z,11.90
2018-09-15T20:15:26.544Z,11.73
2018-09-15T20:17:54.305Z,12.10
2018-09-15T20:20:22.524Z,12.50
2018-09-15T20:22:52.410Z,12.90
2018-09-15T20:25:20.899Z,12.70
2018-09-15T20:27:49.283Z,12.77
2018-09-15T20:30:17.682Z,14.30
2018-09-15T20:32:46.321Z,13.17
2018-09-15T20:35:14.875Z,13.27
2018-09-15T20:37:43.249Z,12.27
2018-09-15T20:40:11.663Z,12.57
2018-09-15T20:42:40.525Z,12.77
2018-09-15T20:45:09.288Z,13.60
2018-09-15T20:47:38.067Z,11.93
2018-09-15T20:50:07.241Z,13.07
2018-09-15T20:52:35.635Z,13.17
2018-09-15T20:55:04.200Z,13.90
2018-09-15T20:57:32.551Z,14.80
2018-09-15T21:00:00.877Z,14.00
2018-09-15T21:02:29.312Z,14.03
2018-09-15T21:04:57.711Z,14.13
2018-09-15T21:07:26.258Z,12.70
2018-09-15T21:09:54.602Z,13.87
2018-09-15T21:12:23.058Z,15.07
2018-09-15T21:14:51.347Z,15.70
2018-09-15T21:17:19.790Z,14.03
2018-09-15T21:19:48.208Z,14.63
2018-09-15T21:22:16.608Z,14.93
2018-09-15T21:24:45.081Z,14.30
2018-09-15T21:27:13.435Z,13.70
2018-09-15T21:29:41.788Z,13.43
2018-09-15T21:32:10.118Z,13.07
2018-09-15T21:34:38.717Z,13.80
2018-09-15T21:37:07.368Z,13.90
2018-09-15T21:39:35.753Z,14.00
2018-09-15T21:42:04.137Z,15.07
2018-09-15T21:44:32.587Z,14.27
2018-09-15T21:47:00.936Z,13.30
2018-09-15T21:49:29.285Z,15.43
2018-09-15T21:51:57.792Z,14.70
2018-09-15T21:54:26.145Z,15.33
2018-09-15T21:56:54.540Z,15.17
2018-09-15T21:59:22.877Z,16.20
2018-09-15T22:01:51.247Z,16.07
2018-09-15T22:04:21.444Z,16.77
2018-09-15T22:06:51.949Z,14.90
2018-09-15T22:09:20.384Z,16.13
2018-09-15T22:11:49.132Z,16.20
2018-09-15T22:14:17.554Z,16.30
2018-09-15T22:16:45.976Z,15.20
2018-09-15T22:19:14.442Z,16.10
2018-09-15T22:21:43.046Z,15.37
2018-09-15T22:24:11.542Z,15.37
2018-09-15T22:26:39.941Z,15.27
2018-09-15T22:29:08.392Z,14.70
2018-09-15T22:31:36.798Z,15.90
2018-09-15T22:34:05.249Z,15.90
2018-09-15T22:36:33.696Z,17.27
2018-09-15T22:39:02.224Z,16.67
2018-09-15T22:41:30.941Z,15.17
2018-09-15T22:43:59.333Z,16.50
2018-09-15T22:46:27.889Z,16.33
2018-09-15T22:48:56.411Z,15.13
2018-09-15T22:51:24.779Z,16.07
2018-09-15T22:53:53.222Z,16.57
2018-09-15T22:56:21.689Z,15.67
2018-09-15T22:58:49.983Z,14.87
2018-09-15T23:01:18.349Z,15.83
2018-09-15T23:03:46.750Z,15.43
2018-09-15T23:06:15.303Z,16.60
2018-09-15T23:08:44.001Z,16.33
2018-09-15T23:11:12.892Z,15.70
2018-09-15T23:13:41.479Z,15.43
2018-09-15T23:16:09.977Z,16.23
2018-09-15T23:18:38.567Z,14.80
2018-09-15T23:21:07.565Z,16.47
2018-09-15T23:23:36.045Z,17.93
2018-09-15T23:26:04.382Z,16.40
2018-09-15T23:28:32.766Z,16.00
2018-09-15T23:31:01.130Z,15.80
2018-09-15T23:33:29.531Z,17.23
2018-09-15T23:35:57.943Z,17.57
2018-09-15T23:38:26.382Z,18.07
2018-09-15T23:40:54.695Z,18.83
2018-09-15T23:43:23.079Z,18.30
2018-09-15T23:45:51.393Z,17.60
2018-09-15T23:48:19.876Z,17.83
2018-09-15T23:50:48.397Z,18.37
2018-09-15T23:53:16.834Z,18.10
2018-09-15T23:55:45.149Z,18.50
2018-09-15T23:58:13.516Z,19.37
